sensor_id;sensor_type;location;lat;lon;timestamp;temperature;humidity
2571;DHT22;1295;51.130;6.732;2022-10-03T00:01:35;15.20;99.90
2571;DHT22;1295;51.130;6.732;2022-10-03T00:04:13;15.20;99.90
2571;DHT22;1295;51.130;6.732;2022-10-03T00:09:33;15.20;99.90
2571;DHT22;1295;51.130;6.732;2022-10-03T00:12:03;15.20;99.90
2571;DHT22;1295;51.130;6.732;2022-10-03T00:14:40;15.10;99.90
2571;DHT22;1295;51.130;6.732;2022-10-03T00:17:08;15.10;99.90
2571;DHT22;1295;51.130;6.732;2022-10-03T00:19:42;15.10;99.90
2571;DHT22;1295;51.130;6.732;2022-10-03T00:22:14;15.10;99.90
2571;DHT22;1295;51.130;6.732;2022-10-03T00:25:06;15.10;99.90
2571;DHT22;1295;51.130;6.732;2022-10-03T00:27:37;15.10;99.90
2571;DHT22;1295;51.130;6.732;2022-10-03T00:30:11;15.10;99.90
2571;DHT22;1295;51.130;6.732;2022-10-03T00:32:56;15.10;99.90
2571;DHT22;1295;51.130;6.732;2022-10-03T00:35:51;15.10;99.90
2571;DHT22;1295;51.130;6.732;2022-10-03T00:38:31;15.00;99.90
2571;DHT22;1295;51.130;6.732;2022-10-03T00:42:23;15.00;99.90
2571;DHT22;1295;51.130;6.732;2022-10-03T00:47:00;15.00;99.90
2571;DHT22;1295;51.130;6.732;2022-10-03T00:52:14;15.00;99.90
2571;DHT22;1295;51.130;6.732;2022-10-03T00:54:43;15.00;99.90
2571;DHT22;1295;51.130;6.732;2022-10-03T00:57:15;15.00;99.90
2571;DHT22;1295;51.130;6.732;2022-10-03T01:00:00;15.00;99.90
2571;DHT22;1295;51.130;6.732;2022-10-03T01:02:33;15.00;99.90
2571;DHT22;1295;51.130;6.732;2022-10-03T01:05:38;14.90;99.90
2571;DHT22;1295;51.130;6.732;2022-10-03T01:07:57;15.00;99.90
2571;DHT22;1295;51.130;6.732;2022-10-03T01:10:25;15.00;99.90
2571;DHT22;1295;51.130;6.732;2022-10-03T01:15:37;14.90;99.90
2571;DHT22;1295;51.130;6.732;2022-10-03T01:18:12;14.90;99.90
2571;DHT22;1295;51.130;6.732;2022-10-03T01:20:52;14.90;99.90
2571;DHT22;1295;51.130;6.732;2022-10-03T01:26:04;14.90;99.90
2571;DHT22;1295;51.130;6.732;2022-10-03T01:28:36;14.90;99.90
2571;DHT22;1295;51.130;6.732;2022-10-03T01:31:07;14.90;99.90
2571;DHT22;1295;51.130;6.732;2022-10-03T01:33:54;14.80;99.90
2571;DHT22;1295;51.130;6.732;2022-10-03T01:36:24;14.90;99.90
2571;DHT22;1295;51.130;6.732;2022-10-03T01:38:49;14.90;99.90
2571;DHT22;1295;51.130;6.732;2022-10-03T01:41:41;14.90;99.90
2571;DHT22;1295;51.130;6.732;2022-10-03T01:44:09;14.80;99.90
2571;DHT22;1295;51.130;6.732;2022-10-03T01:46:34;14.80;99.90
2571;DHT22;1295;51.130;6.732;2022-10-03T01:49:04;14.80;99.90
2571;DHT22;1295;51.130;6.732;2022-10-03T01:51:29;14.80;99.90
2571;DHT22;1295;51.130;6.732;2022-10-03T01:54:15;14.80;99.90
2571;DHT22;1295;51.130;6.732;2022-10-03T01:56:41;14.80;99.90
2571;DHT22;1295;51.130;6.732;2022-10-03T01:59:06;14.80;99.90
2571;DHT22;1295;51.130;6.732;2022-10-03T02:01:50;14.80;99.90
2571;DHT22;1295;51.130;6.732;2022-10-03T02:04:21;14.80;99.90
2571;DHT22;1295;51.130;6.732;2022-10-03T02:06:52;14.80;99.90
2571;DHT22;1295;51.130;6.732;2022-10-03T02:09:19;14.70;99.90
2571;DHT22;1295;51.130;6.732;2022-10-03T02:14:30;14.70;99.90
2571;DHT22;1295;51.130;6.732;2022-10-03T02:19:28;14.70;99.90
2571;DHT22;1295;51.130;6.732;2022-10-03T02:21:53;14.70;99.90
2571;DHT22;1295;51.130;6.732;2022-10-03T02:24:39;14.70;99.90
2571;DHT22;1295;51.130;6.732;2022-10-03T02:27:23;14.70;99.90
2571;DHT22;1295;51.130;6.732;2022-10-03T02:30:12;14.70;99.90
2571;DHT22;1295;51.130;6.732;2022-10-03T02:32:50;14.60;99.90
2571;DHT22;1295;51.130;6.732;2022-10-03T02:35:32;14.60;99.90
2571;DHT22;1295;51.130;6.732;2022-10-03T02:38:06;14.60;99.90
2571;DHT22;1295;51.130;6.732;2022-10-03T02:40:31;14.60;99.90
2571;DHT22;1295;51.130;6.732;2022-10-03T02:43:04;14.60;99.90
2571;DHT22;1295;51.130;6.732;2022-10-03T02:48:40;14.60;99.90
2571;DHT22;1295;51.130;6.732;2022-10-03T02:51:18;14.60;99.90
2571;DHT22;1295;51.130;6.732;2022-10-03T02:53:50;14.60;99.90
2571;DHT22;1295;51.130;6.732;2022-10-03T02:56:44;14.60;99.90
2571;DHT22;1295;51.130;6.732;2022-10-03T02:59:19;14.50;99.90
2571;DHT22;1295;51.130;6.732;2022-10-03T03:01:55;14.50;99.90
2571;DHT22;1295;51.130;6.732;2022-10-03T03:04:22;14.50;99.90
2571;DHT22;1295;51.130;6.732;2022-10-03T03:06:59;14.50;99.90
2571;DHT22;1295;51.130;6.732;2022-10-03T03:09:45;14.50;99.90
2571;DHT22;1295;51.130;6.732;2022-10-03T03:12:15;14.50;99.90
2571;DHT22;1295;51.130;6.732;2022-10-03T03:14:47;14.50;99.90
2571;DHT22;1295;51.130;6.732;2022-10-03T03:17:19;14.50;99.90
2571;DHT22;1295;51.130;6.732;2022-10-03T03:19:49;14.50;99.90
2571;DHT22;1295;51.130;6.732;2022-10-03T03:25:01;14.50;99.90
2571;DHT22;1295;51.130;6.732;2022-10-03T03:27:48;14.50;99.90
2571;DHT22;1295;51.130;6.732;2022-10-03T03:30:15;14.40;99.90
2571;DHT22;1295;51.130;6.732;2022-10-03T03:33:02;14.40;99.90
2571;DHT22;1295;51.130;6.732;2022-10-03T03:35:50;14.40;99.90
2571;DHT22;1295;51.130;6.732;2022-10-03T03:38:25;14.40;99.90
2571;DHT22;1295;51.130;6.732;2022-10-03T03:41:45;14.40;99.90
2571;DHT22;1295;51.130;6.732;2022-10-03T03:44:05;14.40;99.90
2571;DHT22;1295;51.130;6.732;2022-10-03T03:49:07;14.40;99.90
2571;DHT22;1295;51.130;6.732;2022-10-03T03:51:31;14.40;99.90
2571;DHT22;1295;51.130;6.732;2022-10-03T03:54:07;14.40;99.90
2571;DHT22;1295;51.130;6.732;2022-10-03T03:56:38;14.30;99.90
2571;DHT22;1295;51.130;6.732;2022-10-03T03:59:21;14.30;99.90
2571;DHT22;1295;51.130;6.732;2022-10-03T04:02:38;14.30;99.90
2571;DHT22;1295;51.130;6.732;2022-10-03T04:04:49;14.30;99.90
2571;DHT22;1295;51.130;6.732;2022-10-03T04:13:35;14.30;99.90
2571;DHT22;1295;51.130;6.732;2022-10-03T04:18:26;14.20;99.90
2571;DHT22;1295;51.130;6.732;2022-10-03T04:21:17;14.20;99.90
2571;DHT22;1295;51.130;6.732;2022-10-03T04:23:47;14.20;99.90
2571;DHT22;1295;51.130;6.732;2022-10-03T04:26:19;14.20;99.90
2571;DHT22;1295;51.130;6.732;2022-10-03T04:31:44;14.20;99.90
2571;DHT22;1295;51.130;6.732;2022-10-03T04:34:16;14.20;99.90
2571;DHT22;1295;51.130;6.732;2022-10-03T04:37:13;14.20;99.90
2571;DHT22;1295;51.130;6.732;2022-10-03T04:39:44;14.10;99.90
2571;DHT22;1295;51.130;6.732;2022-10-03T04:42:09;14.20;99.90
2571;DHT22;1295;51.130;6.732;2022-10-03T04:45:16;14.10;99.90
2571;DHT22;1295;51.130;6.732;2022-10-03T04:47:25;14.10;99.90
2571;DHT22;1295;51.130;6.732;2022-10-03T04:52:37;14.10;99.90
2571;DHT22;1295;51.130;6.732;2022-10-03T04:55:04;14.10;99.90
2571;DHT22;1295;51.130;6.732;2022-10-03T05:03:18;14.10;99.90
2571;DHT22;1295;51.130;6.732;2022-10-03T05:05:47;14.10;99.90
2571;DHT22;1295;51.130;6.732;2022-10-03T05:09:25;14.00;99.90
2571;DHT22;1295;51.130;6.732;2022-10-03T05:11:09;14.00;99.90
2571;DHT22;1295;51.130;6.732;2022-10-03T05:13:39;14.00;99.90
2571;DHT22;1295;51.130;6.732;2022-10-03T05:16:19;14.00;99.90
2571;DHT22;1295;51.130;6.732;2022-10-03T05:24:18;14.00;99.90
2571;DHT22;1295;51.130;6.732;2022-10-03T05:26:52;14.00;99.90
2571;DHT22;1295;51.130;6.732;2022-10-03T05:29:40;14.00;99.90
2571;DHT22;1295;51.130;6.732;2022-10-03T05:32:26;13.90;99.90
2571;DHT22;1295;51.130;6.732;2022-10-03T05:34:57;13.90;99.90
2571;DHT22;1295;51.130;6.732;2022-10-03T05:40:01;13.90;99.90
2571;DHT22;1295;51.130;6.732;2022-10-03T05:43:35;13.90;99.90
2571;DHT22;1295;51.130;6.732;2022-10-03T05:47:47;13.90;99.90
2571;DHT22;1295;51.130;6.732;2022-10-03T05:50:33;13.90;99.90
2571;DHT22;1295;51.130;6.732;2022-10-03T05:53:11;13.90;99.90
2571;DHT22;1295;51.130;6.732;2022-10-03T06:01:10;13.80;99.90
2571;DHT22;1295;51.130;6.732;2022-10-03T06:03:49;13.80;99.90
2571;DHT22;1295;51.130;6.732;2022-10-03T06:06:17;13.80;99.90
2571;DHT22;1295;51.130;6.732;2022-10-03T06:09:06;13.80;99.90
2571;DHT22;1295;51.130;6.732;2022-10-03T06:14:28;13.80;99.90
2571;DHT22;1295;51.130;6.732;2022-10-03T06:24:50;13.70;99.90
2571;DHT22;1295;51.130;6.732;2022-10-03T06:27:31;13.70;99.90
2571;DHT22;1295;51.130;6.732;2022-10-03T06:30:02;13.70;99.90
2571;DHT22;1295;51.130;6.732;2022-10-03T06:32:44;13.70;99.90
2571;DHT22;1295;51.130;6.732;2022-10-03T06:35:22;13.70;99.90
2571;DHT22;1295;51.130;6.732;2022-10-03T06:38:00;13.70;99.90
2571;DHT22;1295;51.130;6.732;2022-10-03T06:40:31;13.70;99.90
2571;DHT22;1295;51.130;6.732;2022-10-03T06:43:19;13.70;99.90
2571;DHT22;1295;51.130;6.732;2022-10-03T06:48:39;13.70;99.90
2571;DHT22;1295;51.130;6.732;2022-10-03T06:53:58;13.70;99.90
2571;DHT22;1295;51.130;6.732;2022-10-03T06:59:19;13.60;99.90
2571;DHT22;1295;51.130;6.732;2022-10-03T07:01:49;13.60;99.90
2571;DHT22;1295;51.130;6.732;2022-10-03T07:04:21;13.60;99.90
2571;DHT22;1295;51.130;6.732;2022-10-03T07:10:15;13.60;99.90
2571;DHT22;1295;51.130;6.732;2022-10-03T07:16:04;13.60;99.90
2571;DHT22;1295;51.130;6.732;2022-10-03T07:18:41;13.60;99.90
2571;DHT22;1295;51.130;6.732;2022-10-03T07:24:01;13.60;99.90
2571;DHT22;1295;51.130;6.732;2022-10-03T07:26:38;13.60;99.90
2571;DHT22;1295;51.130;6.732;2022-10-03T07:31:47;13.60;99.90
2571;DHT22;1295;51.130;6.732;2022-10-03T07:34:17;13.60;99.90
2571;DHT22;1295;51.130;6.732;2022-10-03T07:37:23;13.70;99.90
2571;DHT22;1295;51.130;6.732;2022-10-03T07:42:35;13.70;99.90
2571;DHT22;1295;51.130;6.732;2022-10-03T07:48:04;13.70;99.90
2571;DHT22;1295;51.130;6.732;2022-10-03T07:53:25;13.70;99.90
2571;DHT22;1295;51.130;6.732;2022-10-03T07:55:56;13.60;99.90
2571;DHT22;1295;51.130;6.732;2022-10-03T08:01:21;13.70;99.90
2571;DHT22;1295;51.130;6.732;2022-10-03T08:04:12;13.70;99.90
2571;DHT22;1295;51.130;6.732;2022-10-03T08:06:36;13.70;99.90
2571;DHT22;1295;51.130;6.732;2022-10-03T08:09:07;13.70;99.90
2571;DHT22;1295;51.130;6.732;2022-10-03T08:11:50;13.70;99.90
2571;DHT22;1295;51.130;6.732;2022-10-03T08:17:11;13.70;99.90
2571;DHT22;1295;51.130;6.732;2022-10-03T08:19:50;13.70;99.90
2571;DHT22;1295;51.130;6.732;2022-10-03T08:22:25;13.70;99.90
2571;DHT22;1295;51.130;6.732;2022-10-03T08:24:53;13.70;99.90
2571;DHT22;1295;51.130;6.732;2022-10-03T08:27:24;13.80;99.90
2571;DHT22;1295;51.130;6.732;2022-10-03T08:29:55;13.70;99.90
2571;DHT22;1295;51.130;6.732;2022-10-03T08:32:32;13.70;99.90
2571;DHT22;1295;51.130;6.732;2022-10-03T08:37:42;13.70;99.90
2571;DHT22;1295;51.130;6.732;2022-10-03T08:42:57;13.80;99.90
2571;DHT22;1295;51.130;6.732;2022-10-03T08:45:30;13.90;99.90
2571;DHT22;1295;51.130;6.732;2022-10-03T08:49:09;13.90;99.90
2571;DHT22;1295;51.130;6.732;2022-10-03T08:53:46;14.10;99.90
2571;DHT22;1295;51.130;6.732;2022-10-03T08:56:12;14.40;99.90
2571;DHT22;1295;51.130;6.732;2022-10-03T09:01:27;14.40;99.90
2571;DHT22;1295;51.130;6.732;2022-10-03T09:04:22;14.80;99.90
2571;DHT22;1295;51.130;6.732;2022-10-03T09:07:04;14.70;99.90
2571;DHT22;1295;51.130;6.732;2022-10-03T09:12:06;14.50;99.90
2571;DHT22;1295;51.130;6.732;2022-10-03T09:14:39;15.90;99.90
2571;DHT22;1295;51.130;6.732;2022-10-03T09:18:17;15.90;99.90
2571;DHT22;1295;51.130;6.732;2022-10-03T09:22:41;14.90;99.90
2571;DHT22;1295;51.130;6.732;2022-10-03T09:25:06;15.00;99.90
2571;DHT22;1295;51.130;6.732;2022-10-03T09:30:23;16.40;99.90
2571;DHT22;1295;51.130;6.732;2022-10-03T09:34:03;15.50;99.90
2571;DHT22;1295;51.130;6.732;2022-10-03T09:35:44;15.70;99.90
2571;DHT22;1295;51.130;6.732;2022-10-03T09:41:25;15.30;99.90
2571;DHT22;1295;51.130;6.732;2022-10-03T09:44:35;15.10;99.90
2571;DHT22;1295;51.130;6.732;2022-10-03T09:46:57;15.20;99.90
2571;DHT22;1295;51.130;6.732;2022-10-03T09:52:43;15.30;99.90
2571;DHT22;1295;51.130;6.732;2022-10-03T09:55:12;16.20;99.90
2571;DHT22;1295;51.130;6.732;2022-10-03T09:57:43;16.30;99.90
2571;DHT22;1295;51.130;6.732;2022-10-03T10:00:24;15.80;99.90
2571;DHT22;1295;51.130;6.732;2022-10-03T10:05:56;16.00;99.90
2571;DHT22;1295;51.130;6.732;2022-10-03T10:08:36;15.80;99.90
2571;DHT22;1295;51.130;6.732;2022-10-03T10:11:22;16.10;99.90
2571;DHT22;1295;51.130;6.732;2022-10-03T10:14:10;16.00;99.90
2571;DHT22;1295;51.130;6.732;2022-10-03T10:17:02;15.40;99.90
2571;DHT22;1295;51.130;6.732;2022-10-03T10:19:49;15.40;99.90
2571;DHT22;1295;51.130;6.732;2022-10-03T10:22:37;16.90;99.90
2571;DHT22;1295;51.130;6.732;2022-10-03T10:25:34;16.80;99.90
2571;DHT22;1295;51.130;6.732;2022-10-03T10:28:01;16.80;99.90
2571;DHT22;1295;51.130;6.732;2022-10-03T10:39:01;17.50;99.90
2571;DHT22;1295;51.130;6.732;2022-10-03T10:42:37;17.40;99.90
2571;DHT22;1295;51.130;6.732;2022-10-03T10:44:43;18.00;99.90
2571;DHT22;1295;51.130;6.732;2022-10-03T10:47:10;17.90;99.90
2571;DHT22;1295;51.130;6.732;2022-10-03T10:49:49;17.90;99.90
2571;DHT22;1295;51.130;6.732;2022-10-03T10:52:45;17.10;99.90
2571;DHT22;1295;51.130;6.732;2022-10-03T11:00:38;15.50;99.90
2571;DHT22;1295;51.130;6.732;2022-10-03T11:09:01;15.80;99.90
2571;DHT22;1295;51.130;6.732;2022-10-03T11:17:37;15.90;99.90
2571;DHT22;1295;51.130;6.732;2022-10-03T11:20:19;15.50;99.90
2571;DHT22;1295;51.130;6.732;2022-10-03T11:25:46;15.50;99.90
2571;DHT22;1295;51.130;6.732;2022-10-03T11:28:24;15.60;99.90
2571;DHT22;1295;51.130;6.732;2022-10-03T11:31:47;16.40;99.90
2571;DHT22;1295;51.130;6.732;2022-10-03T11:34:02;16.40;99.90
2571;DHT22;1295;51.130;6.732;2022-10-03T11:37:36;16.60;99.90
2571;DHT22;1295;51.130;6.732;2022-10-03T11:40:21;16.60;99.90
2571;DHT22;1295;51.130;6.732;2022-10-03T11:41:59;16.30;99.90
2571;DHT22;1295;51.130;6.732;2022-10-03T11:44:28;16.30;99.90
2571;DHT22;1295;51.130;6.732;2022-10-03T11:47:01;15.70;99.90
2571;DHT22;1295;51.130;6.732;2022-10-03T11:57:37;16.10;99.90
2571;DHT22;1295;51.130;6.732;2022-10-03T12:00:19;15.90;99.90
2571;DHT22;1295;51.130;6.732;2022-10-03T12:05:33;16.00;99.90
2571;DHT22;1295;51.130;6.732;2022-10-03T12:08:05;15.80;99.90
2571;DHT22;1295;51.130;6.732;2022-10-03T12:10:42;15.90;99.90
2571;DHT22;1295;51.130;6.732;2022-10-03T12:13:07;15.70;99.90
2571;DHT22;1295;51.130;6.732;2022-10-03T12:15:37;15.70;99.90
2571;DHT22;1295;51.130;6.732;2022-10-03T12:18:24;15.60;99.90
2571;DHT22;1295;51.130;6.732;2022-10-03T12:21:09;15.50;99.90
2571;DHT22;1295;51.130;6.732;2022-10-03T12:26:52;15.50;99.90
2571;DHT22;1295;51.130;6.732;2022-10-03T12:29:16;15.60;99.90
2571;DHT22;1295;51.130;6.732;2022-10-03T12:32:00;15.60;99.90
2571;DHT22;1295;51.130;6.732;2022-10-03T12:34:38;15.60;99.90
2571;DHT22;1295;51.130;6.732;2022-10-03T12:37:40;15.50;99.90
2571;DHT22;1295;51.130;6.732;2022-10-03T12:40:22;15.60;99.90
2571;DHT22;1295;51.130;6.732;2022-10-03T12:42:47;15.80;99.90
2571;DHT22;1295;51.130;6.732;2022-10-03T12:45:36;16.30;99.90
2571;DHT22;1295;51.130;6.732;2022-10-03T12:50:55;17.00;99.90
2571;DHT22;1295;51.130;6.732;2022-10-03T12:53:21;16.40;99.90
2571;DHT22;1295;51.130;6.732;2022-10-03T12:58:39;16.70;99.90
2571;DHT22;1295;51.130;6.732;2022-10-03T13:04:27;16.30;99.90
2571;DHT22;1295;51.130;6.732;2022-10-03T13:07:18;16.60;99.90
2571;DHT22;1295;51.130;6.732;2022-10-03T13:12:28;15.80;99.90
2571;DHT22;1295;51.130;6.732;2022-10-03T13:17:35;16.00;99.90
2571;DHT22;1295;51.130;6.732;2022-10-03T13:19:58;15.90;99.90
2571;DHT22;1295;51.130;6.732;2022-10-03T13:22:40;16.00;99.90
2571;DHT22;1295;51.130;6.732;2022-10-03T13:25:15;17.10;99.90
2571;DHT22;1295;51.130;6.732;2022-10-03T13:27:41;17.70;99.90
2571;DHT22;1295;51.130;6.732;2022-10-03T13:30:12;18.10;99.90
2571;DHT22;1295;51.130;6.732;2022-10-03T13:32:35;18.30;99.90
2571;DHT22;1295;51.130;6.732;2022-10-03T13:35:20;17.20;99.90
2571;DHT22;1295;51.130;6.732;2022-10-03T13:38:21;16.60;99.90
2571;DHT22;1295;51.130;6.732;2022-10-03T13:41:08;16.30;99.90
2571;DHT22;1295;51.130;6.732;2022-10-03T13:43:31;16.20;99.90
2571;DHT22;1295;51.130;6.732;2022-10-03T13:45:56;15.90;99.90
2571;DHT22;1295;51.130;6.732;2022-10-03T13:48:23;15.90;99.90
2571;DHT22;1295;51.130;6.732;2022-10-03T13:50:54;15.80;99.90
2571;DHT22;1295;51.130;6.732;2022-10-03T13:56:10;15.90;99.90
2571;DHT22;1295;51.130;6.732;2022-10-03T13:58:43;16.00;99.90
2571;DHT22;1295;51.130;6.732;2022-10-03T14:01:10;15.70;99.90
2571;DHT22;1295;51.130;6.732;2022-10-03T14:04:17;16.00;99.90
2571;DHT22;1295;51.130;6.732;2022-10-03T14:06:22;16.00;99.90
2571;DHT22;1295;51.130;6.732;2022-10-03T14:11:38;15.90;99.90
2571;DHT22;1295;51.130;6.732;2022-10-03T14:14:17;15.80;99.90
2571;DHT22;1295;51.130;6.732;2022-10-03T14:16:34;15.90;99.90
2571;DHT22;1295;51.130;6.732;2022-10-03T14:19:19;16.00;99.90
2571;DHT22;1295;51.130;6.732;2022-10-03T14:22:18;16.10;99.90
2571;DHT22;1295;51.130;6.732;2022-10-03T14:24:56;16.00;99.90
2571;DHT22;1295;51.130;6.732;2022-10-03T14:30:10;16.10;99.90
2571;DHT22;1295;51.130;6.732;2022-10-03T14:32:51;16.90;99.90
2571;DHT22;1295;51.130;6.732;2022-10-03T14:35:37;17.00;99.90
2571;DHT22;1295;51.130;6.732;2022-10-03T14:40:48;16.50;99.90
2571;DHT22;1295;51.130;6.732;2022-10-03T14:43:30;16.50;99.90
2571;DHT22;1295;51.130;6.732;2022-10-03T14:45:57;16.70;99.90
2571;DHT22;1295;51.130;6.732;2022-10-03T14:48:27;17.00;99.90
2571;DHT22;1295;51.130;6.732;2022-10-03T14:50:50;16.90;99.90
2571;DHT22;1295;51.130;6.732;2022-10-03T14:53:17;16.80;99.90
2571;DHT22;1295;51.130;6.732;2022-10-03T14:55:46;16.70;99.90
2571;DHT22;1295;51.130;6.732;2022-10-03T14:58:14;16.50;99.90
2571;DHT22;1295;51.130;6.732;2022-10-03T15:00:45;16.50;99.90
2571;DHT22;1295;51.130;6.732;2022-10-03T15:03:19;16.70;99.90
2571;DHT22;1295;51.130;6.732;2022-10-03T15:05:57;16.50;99.90
2571;DHT22;1295;51.130;6.732;2022-10-03T15:08:22;16.60;99.90
2571;DHT22;1295;51.130;6.732;2022-10-03T15:10:48;16.60;99.90
2571;DHT22;1295;51.130;6.732;2022-10-03T15:13:13;16.60;99.90
2571;DHT22;1295;51.130;6.732;2022-10-03T15:15:44;16.50;99.90
2571;DHT22;1295;51.130;6.732;2022-10-03T15:18:14;16.60;99.90
2571;DHT22;1295;51.130;6.732;2022-10-03T15:20:39;16.50;99.90
2571;DHT22;1295;51.130;6.732;2022-10-03T15:23:05;16.60;99.90
2571;DHT22;1295;51.130;6.732;2022-10-03T15:25:35;16.50;99.90
2571;DHT22;1295;51.130;6.732;2022-10-03T15:28:03;16.50;99.90
2571;DHT22;1295;51.130;6.732;2022-10-03T15:30:29;16.50;99.90
2571;DHT22;1295;51.130;6.732;2022-10-03T15:32:53;16.40;99.90
2571;DHT22;1295;51.130;6.732;2022-10-03T15:35:22;16.40;99.90
2571;DHT22;1295;51.130;6.732;2022-10-03T15:37:45;16.50;99.90
2571;DHT22;1295;51.130;6.732;2022-10-03T15:40:23;16.60;99.90
2571;DHT22;1295;51.130;6.732;2022-10-03T15:42:48;16.60;99.90
2571;DHT22;1295;51.130;6.732;2022-10-03T15:45:16;16.50;99.90
2571;DHT22;1295;51.130;6.732;2022-10-03T15:47:41;16.50;99.90
2571;DHT22;1295;51.130;6.732;2022-10-03T15:50:05;16.40;99.90
2571;DHT22;1295;51.130;6.732;2022-10-03T15:52:36;16.30;99.90
2571;DHT22;1295;51.130;6.732;2022-10-03T15:55:02;16.30;99.90
2571;DHT22;1295;51.130;6.732;2022-10-03T15:57:31;16.20;99.90
2571;DHT22;1295;51.130;6.732;2022-10-03T15:59:55;16.20;99.90
2571;DHT22;1295;51.130;6.732;2022-10-03T16:02:22;16.20;99.90
2571;DHT22;1295;51.130;6.732;2022-10-03T16:04:46;16.20;99.90
2571;DHT22;1295;51.130;6.732;2022-10-03T16:09:53;16.20;99.90
2571;DHT22;1295;51.130;6.732;2022-10-03T16:15:50;16.20;99.90
2571;DHT22;1295;51.130;6.732;2022-10-03T16:17:58;16.30;99.90
2571;DHT22;1295;51.130;6.732;2022-10-03T16:20:39;16.20;99.90
2571;DHT22;1295;51.130;6.732;2022-10-03T16:23:18;16.20;99.90
2571;DHT22;1295;51.130;6.732;2022-10-03T16:25:48;16.10;99.90
2571;DHT22;1295;51.130;6.732;2022-10-03T16:28:19;16.10;99.90
2571;DHT22;1295;51.130;6.732;2022-10-03T16:30:56;16.10;99.90
2571;DHT22;1295;51.130;6.732;2022-10-03T16:33:34;16.10;99.90
2571;DHT22;1295;51.130;6.732;2022-10-03T16:36:00;16.10;99.90
2571;DHT22;1295;51.130;6.732;2022-10-03T16:38:26;16.10;99.90
2571;DHT22;1295;51.130;6.732;2022-10-03T16:40:55;16.10;99.90
2571;DHT22;1295;51.130;6.732;2022-10-03T16:43:21;16.10;99.90
2571;DHT22;1295;51.130;6.732;2022-10-03T16:45:46;16.10;99.90
2571;DHT22;1295;51.130;6.732;2022-10-03T16:48:18;16.10;99.90
2571;DHT22;1295;51.130;6.732;2022-10-03T16:50:46;16.10;99.90
2571;DHT22;1295;51.130;6.732;2022-10-03T16:53:10;16.00;99.90
2571;DHT22;1295;51.130;6.732;2022-10-03T16:55:43;16.10;99.90
2571;DHT22;1295;51.130;6.732;2022-10-03T16:58:14;16.10;99.90
2571;DHT22;1295;51.130;6.732;2022-10-03T17:00:43;16.00;99.90
2571;DHT22;1295;51.130;6.732;2022-10-03T17:03:13;16.10;99.90
2571;DHT22;1295;51.130;6.732;2022-10-03T17:05:33;16.10;99.90
2571;DHT22;1295;51.130;6.732;2022-10-03T17:07:58;16.00;99.90
2571;DHT22;1295;51.130;6.732;2022-10-03T17:10:30;16.00;99.90
2571;DHT22;1295;51.130;6.732;2022-10-03T17:12:53;16.00;99.90
2571;DHT22;1295;51.130;6.732;2022-10-03T17:15:20;16.00;99.90
2571;DHT22;1295;51.130;6.732;2022-10-03T17:17:49;16.00;99.90
2571;DHT22;1295;51.130;6.732;2022-10-03T17:20:15;16.00;99.90
2571;DHT22;1295;51.130;6.732;2022-10-03T17:22:41;16.00;99.90
2571;DHT22;1295;51.130;6.732;2022-10-03T17:25:06;16.00;99.90
2571;DHT22;1295;51.130;6.732;2022-10-03T17:27:37;16.00;99.90
2571;DHT22;1295;51.130;6.732;2022-10-03T17:30:16;16.00;99.90
2571;DHT22;1295;51.130;6.732;2022-10-03T17:32:38;16.00;99.90
2571;DHT22;1295;51.130;6.732;2022-10-03T17:35:25;16.00;99.90
2571;DHT22;1295;51.130;6.732;2022-10-03T17:37:55;16.00;99.90
2571;DHT22;1295;51.130;6.732;2022-10-03T17:42:55;15.90;99.90
2571;DHT22;1295;51.130;6.732;2022-10-03T17:45:28;15.90;99.90
2571;DHT22;1295;51.130;6.732;2022-10-03T17:47:56;15.90;99.90
2571;DHT22;1295;51.130;6.732;2022-10-03T17:50:28;15.90;99.90
2571;DHT22;1295;51.130;6.732;2022-10-03T17:52:53;15.90;99.90
2571;DHT22;1295;51.130;6.732;2022-10-03T17:55:30;15.90;99.90
2571;DHT22;1295;51.130;6.732;2022-10-03T17:57:56;15.90;99.90
2571;DHT22;1295;51.130;6.732;2022-10-03T18:00:22;15.90;99.90
2571;DHT22;1295;51.130;6.732;2022-10-03T18:02:56;15.90;99.90
2571;DHT22;1295;51.130;6.732;2022-10-03T18:05:35;15.90;99.90
2571;DHT22;1295;51.130;6.732;2022-10-03T18:08:01;15.90;99.90
2571;DHT22;1295;51.130;6.732;2022-10-03T18:10:28;15.90;99.90
2571;DHT22;1295;51.130;6.732;2022-10-03T18:12:53;15.80;99.90
2571;DHT22;1295;51.130;6.732;2022-10-03T18:15:38;15.90;99.90
2571;DHT22;1295;51.130;6.732;2022-10-03T18:20:46;15.80;99.90
2571;DHT22;1295;51.130;6.732;2022-10-03T18:23:15;15.90;99.90
2571;DHT22;1295;51.130;6.732;2022-10-03T18:25:49;15.80;99.90
2571;DHT22;1295;51.130;6.732;2022-10-03T18:28:18;15.90;99.90
2571;DHT22;1295;51.130;6.732;2022-10-03T18:30:48;15.80;99.90
2571;DHT22;1295;51.130;6.732;2022-10-03T18:33:13;15.80;99.90
2571;DHT22;1295;51.130;6.732;2022-10-03T18:35:38;15.80;99.90
2571;DHT22;1295;51.130;6.732;2022-10-03T18:38:10;15.80;99.90
2571;DHT22;1295;51.130;6.732;2022-10-03T18:40:41;15.80;99.90
2571;DHT22;1295;51.130;6.732;2022-10-03T18:43:06;15.80;99.90
2571;DHT22;1295;51.130;6.732;2022-10-03T18:45:36;15.80;99.90
2571;DHT22;1295;51.130;6.732;2022-10-03T18:48:05;15.80;99.90
2571;DHT22;1295;51.130;6.732;2022-10-03T18:50:29;15.80;99.90
2571;DHT22;1295;51.130;6.732;2022-10-03T18:53:03;15.80;99.90
2571;DHT22;1295;51.130;6.732;2022-10-03T18:55:27;15.80;99.90
2571;DHT22;1295;51.130;6.732;2022-10-03T18:57:58;15.80;99.90
2571;DHT22;1295;51.130;6.732;2022-10-03T19:00:25;15.80;99.90
2571;DHT22;1295;51.130;6.732;2022-10-03T19:05:34;15.70;99.90
2571;DHT22;1295;51.130;6.732;2022-10-03T19:08:07;15.70;99.90
2571;DHT22;1295;51.130;6.732;2022-10-03T19:10:28;15.70;99.90
2571;DHT22;1295;51.130;6.732;2022-10-03T19:13:00;15.70;99.90
2571;DHT22;1295;51.130;6.732;2022-10-03T19:18:23;15.70;99.90
2571;DHT22;1295;51.130;6.732;2022-10-03T19:20:49;15.70;99.90
2571;DHT22;1295;51.130;6.732;2022-10-03T19:23:19;15.70;99.90
2571;DHT22;1295;51.130;6.732;2022-10-03T19:25:43;15.70;99.90
2571;DHT22;1295;51.130;6.732;2022-10-03T19:28:33;15.70;99.90
2571;DHT22;1295;51.130;6.732;2022-10-03T19:30:58;15.70;99.90
2571;DHT22;1295;51.130;6.732;2022-10-03T19:33:24;15.70;99.90
2571;DHT22;1295;51.130;6.732;2022-10-03T19:35:49;15.60;99.90
2571;DHT22;1295;51.130;6.732;2022-10-03T19:38:16;15.70;99.90
2571;DHT22;1295;51.130;6.732;2022-10-03T19:40:55;15.60;99.90
2571;DHT22;1295;51.130;6.732;2022-10-03T19:43:33;15.60;99.90
2571;DHT22;1295;51.130;6.732;2022-10-03T19:46:23;15.60;99.90
2571;DHT22;1295;51.130;6.732;2022-10-03T19:48:46;15.60;99.90
2571;DHT22;1295;51.130;6.732;2022-10-03T19:51:16;15.60;99.90
2571;DHT22;1295;51.130;6.732;2022-10-03T19:53:41;15.60;99.90
2571;DHT22;1295;51.130;6.732;2022-10-03T19:56:08;15.60;99.90
2571;DHT22;1295;51.130;6.732;2022-10-03T19:58:31;15.60;99.90
2571;DHT22;1295;51.130;6.732;2022-10-03T20:00:57;15.60;99.90
2571;DHT22;1295;51.130;6.732;2022-10-03T20:03:33;15.60;99.90
2571;DHT22;1295;51.130;6.732;2022-10-03T20:06:00;15.60;99.90
2571;DHT22;1295;51.130;6.732;2022-10-03T20:08:44;15.60;99.90
2571;DHT22;1295;51.130;6.732;2022-10-03T20:11:19;15.60;99.90
2571;DHT22;1295;51.130;6.732;2022-10-03T20:13:42;15.50;99.90
2571;DHT22;1295;51.130;6.732;2022-10-03T20:16:07;15.50;99.90
2571;DHT22;1295;51.130;6.732;2022-10-03T20:18:33;15.50;99.90
2571;DHT22;1295;51.130;6.732;2022-10-03T20:20:59;15.50;99.90
2571;DHT22;1295;51.130;6.732;2022-10-03T20:23:26;15.50;99.90
2571;DHT22;1295;51.130;6.732;2022-10-03T20:25:53;15.50;99.90